EST,Max TemperatureF,Mean TemperatureF,Min TemperatureF,Max Dew PointF,MeanDew PointF,Min DewpointF,Max Humidity, Mean Humidity, Min Humidity, Max Sea Level PressureIn, Mean Sea Level PressureIn, Min Sea Level PressureIn, Max VisibilityMiles, Mean VisibilityMiles, Min VisibilityMiles, Max Wind SpeedMPH, Mean Wind SpeedMPH, Max Gust SpeedMPH,PrecipitationIn, CloudCover, Events, WindDirDegrees
2011-1-1,64,52,41,57,51,37,94,85,76,30.23,30.15,30.07,10,8,0,15,5,21,0.18,6,,209
2011-1-2,64,58,50,61,58,45,100,91,82,30.08,30.00,29.92,10,9,3,14,9,18,0.08,8,,238
2011-1-3,44,35,24,23,18,12,86,53,29,30.34,30.25,30.18,10,10,10,9,3,,0.00,0,,5
2011-1-4,53,36,19,34,23,12,100,63,33,30.22,30.10,29.98,10,10,10,15,3,20,0.00,2,,237
2011-1-5,44,34,24,34,26,12,100,72,46,30.03,29.95,29.83,10,10,10,5,1,,0.00,2,,152
2011-1-6,46,40,33,36,30,21,93,72,37,29.76,29.68,29.59,10,8,2,9,1,,0.00,5,,318
2011-1-7,46,39,32,34,29,25,81,68,50,29.58,29.49,29.39,10,10,10,14,5,18,0.00,4,,240
2011-1-8,44,36,28,34,23,5,100,64,28,29.77,29.54,29.43,10,10,5,16,6,29,0.00,2,,284
2011-1-9,35,26,17,7,3,1,58,39,24,30.30,30.17,29.97,10,10,10,9,4,,0.00,0,,337
2011-1-10,28,26,24,27,20,7,100,78,40,30.37,30.31,30.23,10,6,1,12,3,16,0.07,7,,63
2011-1-11,28,28,28,28,27,25,100,95,86,30.20,30.19,30.17,10,5,2,0,0,,0.05,8,,-1
2011-1-12,,,,,,,,,,,,,,,,,,,,,,
2011-1-13,37,29,21,25,18,16,86,60,41,30.41,30.38,30.34,10,10,10,8,5,,0.00,0,,317
2011-1-14,41,26,12,21,16,10,93,62,36,30.47,30.40,30.36,10,10,10,6,1,,0.00,0,,258
2011-1-15,50,36,21,25,20,18,93,58,30,30.33,30.23,30.09,10,10,10,15,4,20,0.00,0,,231
2011-1-16,55,40,26,30,26,19,93,61,35,30.16,30.10,30.06,10,10,10,8,2,,0.00,0,,273
2011-1-17,48,37,26,37,30,23,100,82,58,30.16,30.10,30.01,10,9,4,9,2,16,0.03,3,,50
2011-1-18,48,40,33,41,37,32,100,89,71,29.95,29.86,29.81,10,4,1,8,5,,0.01,8,,299
2011-1-19,59,50,42,46,42,41,100,84,55,29.95,29.86,29.80,10,6,0,9,5,,0.02,6,,268
2011-1-20,51,40,28,37,31,25,100,68,44,30.15,30.03,29.85,10,10,10,9,2,,0.00,0,,117
2011-1-21,46,37,28,43,19,7,87,46,25,29.94,29.84,29.69,10,10,10,13,8,20,0.00,1,,321
2011-1-22,35,30,24,7,4,1,43,35,30,29.95,29.91,29.86,10,10,10,12,6,16,0.00,0,,32
2011-1-23,46,29,12,18,12,7,93,53,25,30.20,30.09,29.96,10,10,10,9,2,,0.00,0,,285
2011-1-24,39,30,21,25,22,16,93,70,56,30.40,30.33,30.26,10,10,10,9,3,,0.00,5,,70
2011-1-25,48,38,28,37,32,25,100,75,58,30.28,30.13,29.93,10,8,0,10,1,,0.00,7,,59
2011-1-26,46,42,39,45,41,34,100,92,81,29.85,29.71,29.55,10,6,1,16,5,26,0.09,7,,337
2011-1-27,48,36,24,34,28,23,100,71,43,30.02,29.95,29.91,10,10,5,10,3,,0.00,0,,264
2011-1-28,55,42,30,34,29,25,87,64,35,29.95,29.85,29.78,10,10,10,12,6,17,0.00,0,,257
2011-1-29,60,40,21,30,25,19,93,58,27,30.10,30.01,29.94,10,10,10,17,4,24,0.00,0,,212
2011-1-30,69,50,32,39,34,28,93,55,25,30.13,30.06,29.99,10,10,10,9,4,,0.00,0,,193
2011-1-31,44,40,37,39,33,30,87,74,61,30.33,30.25,30.09,10,10,7,18,7,23,0.00,6,,59